Terminal Aerodrome Forecast
Issued by NWS

Home | Current Version | Previous Version | Graphics & Text | Print | Product List | Glossary Off
Versions: 1 2 3 4 5 6 7 8 9 10 11 12 13 14 15 16

000
FTUS41 KCLE 210859 AAA
TAFFDY
TAF AMD
KFDY 210859Z 2109/2206 VRB03KT P6SM OVC250
     FM211800 23007KT P6SM BKN200
     FM220000 23007KT P6SM SCT200
     FM220500 20006KT P6SM BKN150=

USA.gov is the U.S. government's official web portal to all federal, state and local government web resources and services.